createdAt,value
2023-06-19T00:00:18.023Z,297.00
2023-06-19T00:01:18.013Z,298.00
2023-06-19T00:02:18.061Z,297.00
2023-06-19T00:03:17.991Z,299.00
2023-06-19T00:04:18.025Z,297.00
2023-06-19T00:05:17.982Z,301.00
2023-06-19T00:06:17.966Z,300.00
2023-06-19T00:07:17.968Z,301.00
2023-06-19T00:08:17.984Z,299.00
2023-06-19T00:09:18.037Z,300.00
2023-06-19T00:10:17.937Z,301.00
2023-06-19T00:11:17.948Z,299.00
2023-06-19T00:12:17.925Z,299.00
2023-06-19T00:13:17.934Z,299.00
2023-06-19T00:14:17.909Z,300.00
2023-06-19T00:15:17.901Z,301.00
2023-06-19T00:16:17.943Z,300.00
2023-06-19T00:17:17.969Z,301.00
2023-06-19T00:18:17.909Z,300.00
2023-06-19T00:19:17.918Z,302.00
2023-06-19T00:20:17.903Z,301.00
2023-06-19T00:21:17.899Z,303.00
2023-06-19T00:22:17.911Z,305.00
2023-06-19T00:23:18.212Z,304.00
2023-06-19T00:24:17.948Z,300.00
2023-06-19T00:25:17.919Z,300.00
2023-06-19T00:26:17.914Z,301.00
2023-06-19T00:27:17.921Z,301.00
2023-06-19T00:28:17.920Z,301.00
2023-06-19T00:29:17.915Z,301.00
2023-06-19T00:30:17.982Z,300.00
2023-06-19T00:31:17.934Z,298.00
2023-06-19T00:32:17.964Z,299.00
2023-06-19T00:33:17.935Z,298.00
2023-06-19T00:34:17.960Z,297.00
2023-06-19T00:35:17.930Z,295.00
2023-06-19T00:36:17.927Z,295.00
2023-06-19T00:37:17.936Z,296.00
2023-06-19T00:38:17.921Z,295.00
2023-06-19T00:39:17.976Z,296.00
2023-06-19T00:40:17.898Z,297.00
2023-06-19T00:41:17.896Z,297.00
2023-06-19T00:42:17.875Z,299.00
2023-06-19T00:43:17.876Z,301.00
2023-06-19T00:44:17.845Z,301.00
2023-06-19T00:45:17.832Z,300.00
2023-06-19T00:46:17.885Z,299.00
2023-06-19T00:47:17.801Z,298.00
2023-06-19T00:48:17.787Z,297.00
2023-06-19T00:49:17.807Z,297.00
2023-06-19T00:50:17.758Z,298.00
2023-06-19T00:51:17.730Z,297.00
2023-06-19T00:52:17.731Z,296.00
2023-06-19T00:53:17.701Z,298.00
2023-06-19T00:54:17.683Z,296.00
2023-06-19T00:55:17.675Z,297.00
2023-06-19T00:56:17.654Z,298.00
2023-06-19T00:57:17.638Z,300.00
2023-06-19T00:58:17.620Z,300.00
2023-06-19T00:59:17.636Z,299.00
2023-06-19T01:00:17.602Z,300.00
2023-06-19T01:01:17.643Z,300.00
2023-06-19T01:02:17.695Z,299.00
2023-06-19T01:03:18.948Z,299.00
2023-06-19T01:04:17.659Z,296.00
2023-06-19T01:05:17.543Z,299.00
2023-06-19T01:06:17.507Z,295.00
2023-06-19T01:07:17.481Z,294.00
2023-06-19T01:08:17.487Z,294.00
2023-06-19T01:09:17.474Z,291.00
2023-06-19T01:10:17.459Z,293.00
2023-06-19T01:11:26.038Z,294.00
2023-06-19T01:12:18.442Z,297.00
2023-06-19T01:13:17.428Z,300.00
2023-06-19T01:14:17.429Z,299.00
2023-06-19T01:15:17.387Z,302.00
2023-06-19T01:16:17.469Z,302.00
2023-06-19T01:17:17.380Z,300.00
2023-06-19T01:18:17.370Z,298.00
2023-06-19T01:19:17.331Z,301.00
2023-06-19T01:20:17.335Z,299.00
2023-06-19T01:21:17.316Z,298.00
2023-06-19T01:22:17.279Z,298.00
2023-06-19T01:23:17.265Z,299.00
2023-06-19T01:24:17.322Z,300.00
2023-06-19T01:25:17.231Z,296.00
2023-06-19T01:26:17.224Z,298.00
2023-06-19T01:27:17.204Z,296.00
2023-06-19T01:28:17.209Z,296.00
2023-06-19T01:29:17.192Z,297.00
2023-06-19T01:30:17.165Z,298.00
2023-06-19T01:31:17.147Z,297.00
2023-06-19T01:32:17.146Z,296.00
2023-06-19T01:33:17.134Z,292.00
2023-06-19T01:34:17.132Z,291.00
2023-06-19T01:35:17.107Z,292.00
2023-06-19T01:36:17.088Z,292.00
2023-06-19T01:37:17.112Z,293.00
2023-06-19T01:38:17.046Z,292.00
2023-06-19T01:39:17.041Z,291.00
2023-06-19T01:40:17.023Z,291.00
2023-06-19T01:41:17.012Z,293.00
2023-06-19T01:42:17.007Z,291.00
2023-06-19T01:43:16.970Z,292.00
2023-06-19T01:44:16.957Z,290.00
2023-06-19T01:45:16.969Z,292.00
2023-06-19T01:46:17.049Z,292.00
2023-06-19T01:47:17.005Z,292.00
2023-06-19T01:48:17.018Z,294.00
2023-06-19T01:49:17.028Z,294.00
2023-06-19T01:50:17.063Z,293.00
2023-06-19T01:51:17.082Z,290.00
2023-06-19T01:52:17.066Z,287.00
2023-06-19T01:53:17.080Z,289.00
2023-06-19T01:54:17.076Z,291.00
2023-06-19T01:55:17.074Z,291.00
2023-06-19T01:56:17.092Z,292.00
2023-06-19T01:57:17.114Z,294.00
2023-06-19T01:58:17.102Z,294.00
2023-06-19T01:59:17.119Z,294.00
2023-06-19T02:00:17.116Z,292.00
2023-06-19T02:01:17.107Z,292.00
2023-06-19T02:02:17.156Z,293.00
2023-06-19T02:03:17.277Z,291.00
2023-06-19T02:04:17.200Z,292.00
2023-06-19T02:05:17.211Z,293.00
2023-06-19T02:06:17.258Z,294.00
2023-06-19T02:07:17.276Z,296.00
2023-06-19T02:08:17.296Z,299.00
2023-06-19T02:09:17.338Z,300.00
2023-06-19T02:10:17.365Z,299.00
2023-06-19T02:11:17.363Z,300.00
2023-06-19T02:12:17.383Z,301.00
2023-06-19T02:13:17.346Z,299.00
2023-06-19T02:14:17.336Z,300.00
2023-06-19T02:15:17.343Z,300.00
2023-06-19T02:16:17.403Z,303.00
2023-06-19T02:17:17.402Z,303.00
2023-06-19T02:18:17.364Z,302.00
2023-06-19T02:19:17.368Z,300.00
2023-06-19T02:20:17.358Z,297.00
2023-06-19T02:21:17.341Z,296.00
2023-06-19T02:22:17.350Z,297.00
2023-06-19T02:23:17.334Z,297.00
2023-06-19T02:24:17.394Z,298.00
2023-06-19T02:25:17.340Z,298.00
2023-06-19T02:26:17.354Z,296.00
2023-06-19T02:27:17.324Z,298.00
2023-06-19T02:28:17.324Z,296.00
2023-06-19T02:29:17.293Z,298.00
2023-06-19T02:30:17.284Z,298.00
2023-06-19T02:31:17.257Z,296.00
2023-06-19T02:32:17.258Z,296.00
2023-06-19T02:33:17.230Z,297.00
2023-06-19T02:34:17.199Z,294.00
2023-06-19T02:35:17.190Z,291.00
2023-06-19T02:36:17.191Z,293.00
2023-06-19T02:37:17.171Z,290.00
2023-06-19T02:38:17.162Z,289.00
2023-06-19T02:39:17.142Z,291.00
2023-06-19T02:40:17.140Z,291.00
2023-06-19T02:41:17.139Z,291.00
2023-06-19T02:42:17.108Z,292.00
2023-06-19T02:43:17.109Z,291.00
2023-06-19T02:44:17.075Z,292.00
2023-06-19T02:45:17.059Z,292.00
2023-06-19T02:46:17.084Z,289.00
2023-06-19T02:47:17.026Z,291.00
2023-06-19T02:48:17.012Z,291.00
2023-06-19T02:49:16.978Z,293.00
2023-06-19T02:50:16.954Z,295.00
2023-06-19T02:51:17.007Z,295.00
2023-06-19T02:52:16.948Z,293.00
2023-06-19T02:53:16.920Z,294.00
2023-06-19T02:54:17.007Z,292.00
2023-06-19T02:55:16.880Z,292.00
2023-06-19T02:56:16.991Z,293.00
2023-06-19T02:57:16.917Z,294.00
2023-06-19T02:58:16.943Z,297.00
2023-06-19T02:59:16.902Z,295.00
2023-06-19T03:00:16.811Z,298.00
2023-06-19T03:01:16.845Z,298.00
2023-06-19T03:02:16.780Z,297.00
2023-06-19T03:03:16.877Z,296.00
2023-06-19T03:04:16.723Z,297.00
2023-06-19T03:05:16.663Z,296.00
2023-06-19T03:06:16.716Z,300.00
2023-06-19T03:07:16.638Z,297.00
2023-06-19T03:08:16.734Z,298.00
2023-06-19T03:09:16.713Z,297.00
2023-06-19T03:10:16.715Z,297.00
2023-06-19T03:11:16.612Z,298.00
2023-06-19T03:12:16.652Z,298.00
2023-06-19T03:13:16.696Z,297.00
2023-06-19T03:14:16.598Z,296.00
2023-06-19T03:15:16.626Z,294.00
2023-06-19T03:16:16.742Z,295.00
2023-06-19T03:17:16.672Z,294.00
2023-06-19T03:18:16.551Z,294.00
2023-06-19T03:19:16.545Z,292.00
2023-06-19T03:20:16.539Z,294.00
2023-06-19T03:21:16.547Z,296.00
2023-06-19T03:22:16.570Z,296.00
2023-06-19T03:23:16.570Z,297.00
2023-06-19T03:24:16.575Z,298.00
2023-06-19T03:25:16.577Z,299.00
2023-06-19T03:26:16.573Z,302.00
2023-06-19T03:27:16.636Z,299.00
2023-06-19T03:28:16.706Z,299.00
2023-06-19T03:29:16.542Z,297.00
2023-06-19T03:30:16.534Z,296.00
2023-06-19T03:31:16.538Z,295.00
2023-06-19T03:32:16.748Z,295.00
2023-06-19T03:33:16.496Z,295.00
2023-06-19T03:34:16.482Z,295.00
2023-06-19T03:35:16.477Z,293.00
2023-06-19T03:36:16.448Z,293.00
2023-06-19T03:37:16.448Z,294.00
2023-06-19T03:38:16.424Z,296.00
2023-06-19T03:39:16.426Z,295.00
2023-06-19T03:40:16.398Z,294.00
2023-06-19T03:41:16.397Z,292.00
2023-06-19T03:42:16.376Z,292.00
2023-06-19T03:43:16.355Z,292.00
2023-06-19T03:44:16.337Z,292.00
2023-06-19T03:45:16.363Z,293.00
2023-06-19T03:46:16.355Z,293.00
2023-06-19T03:47:16.297Z,293.00
2023-06-19T03:48:16.287Z,294.00
2023-06-19T03:49:16.278Z,295.00
2023-06-19T03:50:21.554Z,295.00
2023-06-19T03:51:17.239Z,294.00
2023-06-19T03:52:16.223Z,293.00
2023-06-19T03:53:16.201Z,294.00
2023-06-19T03:54:16.185Z,294.00
2023-06-19T03:55:16.158Z,295.00
2023-06-19T03:56:16.135Z,296.00
2023-06-19T03:57:16.124Z,297.00
2023-06-19T03:58:16.102Z,296.00
2023-06-19T03:59:16.078Z,296.00
2023-06-19T04:00:16.059Z,295.00
2023-06-19T04:01:16.062Z,296.00
2023-06-19T04:02:16.102Z,295.00
2023-06-19T04:03:16.104Z,295.00
2023-06-19T04:04:16.072Z,294.00
2023-06-19T04:05:15.963Z,293.00
2023-06-19T04:06:15.931Z,295.00
2023-06-19T04:07:16.263Z,295.00
2023-06-19T04:08:15.880Z,296.00
2023-06-19T04:09:15.833Z,296.00
2023-06-19T04:10:15.837Z,296.00
2023-06-19T04:11:15.802Z,294.00
2023-06-19T04:12:15.774Z,296.00
2023-06-19T04:13:15.738Z,297.00
2023-06-19T04:14:15.741Z,298.00
2023-06-19T04:15:15.718Z,296.00
2023-06-19T04:16:15.752Z,296.00
2023-06-19T04:17:15.663Z,293.00
2023-06-19T04:18:15.641Z,294.00
2023-06-19T04:19:15.615Z,294.00
2023-06-19T04:20:15.605Z,294.00
2023-06-19T04:21:15.585Z,293.00
2023-06-19T04:22:15.580Z,293.00
2023-06-19T04:23:15.563Z,293.00
2023-06-19T04:24:15.577Z,295.00
2023-06-19T04:25:15.512Z,294.00
2023-06-19T04:26:15.503Z,292.00
2023-06-19T04:27:15.484Z,290.00
2023-06-19T04:28:15.457Z,290.00
2023-06-19T04:29:15.440Z,288.00
2023-06-19T04:30:15.428Z,289.00
2023-06-19T04:31:15.414Z,290.00
2023-06-19T04:32:15.508Z,291.00
2023-06-19T04:33:15.529Z,291.00
2023-06-19T04:34:15.358Z,291.00
2023-06-19T04:35:15.349Z,291.00
2023-06-19T04:36:15.352Z,291.00
2023-06-19T04:37:15.318Z,290.00
2023-06-19T04:38:15.285Z,292.00
2023-06-19T04:39:15.263Z,293.00
2023-06-19T04:40:15.269Z,292.00
2023-06-19T04:41:15.231Z,292.00
2023-06-19T04:42:15.228Z,290.00
2023-06-19T04:43:15.201Z,291.00
2023-06-19T04:44:15.201Z,290.00
2023-06-19T04:45:15.175Z,292.00
2023-06-19T04:46:15.172Z,292.00
2023-06-19T04:47:15.143Z,293.00
2023-06-19T04:48:15.194Z,297.00
2023-06-19T04:49:15.071Z,296.00
2023-06-19T04:50:15.057Z,293.00
2023-06-19T04:51:15.040Z,292.00
2023-06-19T04:52:15.007Z,293.00
2023-06-19T04:53:15.000Z,293.00
2023-06-19T04:54:14.967Z,296.00
2023-06-19T04:55:14.953Z,296.00
2023-06-19T04:56:14.959Z,293.00
2023-06-19T04:57:14.924Z,291.00
2023-06-19T04:58:14.909Z,289.00
2023-06-19T04:59:14.880Z,289.00
2023-06-19T05:00:14.883Z,290.00
2023-06-19T05:01:14.893Z,290.00
2023-06-19T05:02:14.816Z,289.00
2023-06-19T05:03:14.811Z,290.00
2023-06-19T05:04:14.813Z,290.00
2023-06-19T05:05:14.781Z,290.00
2023-06-19T05:06:14.758Z,290.00
2023-06-19T05:07:14.740Z,288.00
2023-06-19T05:08:14.712Z,288.00
2023-06-19T05:09:14.704Z,288.00
2023-06-19T05:10:14.688Z,286.00
2023-06-19T05:11:14.758Z,288.00
2023-06-19T05:12:14.676Z,286.00
2023-06-19T05:13:14.634Z,285.00
2023-06-19T05:14:14.606Z,286.00
2023-06-19T05:15:14.603Z,289.00
2023-06-19T05:16:14.617Z,289.00
2023-06-19T05:17:14.645Z,290.00
2023-06-19T05:18:14.570Z,291.00
2023-06-19T05:19:14.513Z,290.00
2023-06-19T05:20:14.518Z,290.00
2023-06-19T05:21:14.485Z,290.00
2023-06-19T05:22:14.479Z,289.00
2023-06-19T05:23:14.434Z,288.00
2023-06-19T05:24:14.446Z,288.00
2023-06-19T05:25:14.404Z,288.00
2023-06-19T05:26:14.394Z,286.00
2023-06-19T05:27:14.350Z,287.00
2023-06-19T05:28:14.340Z,288.00
2023-06-19T05:29:14.319Z,287.00
2023-06-19T05:30:14.290Z,288.00
2023-06-19T05:31:14.294Z,287.00
2023-06-19T05:32:14.260Z,296.00
2023-06-19T05:33:14.249Z,308.00
2023-06-19T05:34:14.216Z,321.00
2023-06-19T05:35:16.604Z,340.00
2023-06-19T05:36:14.200Z,347.00
2023-06-19T05:37:14.166Z,398.00
2023-06-19T05:38:14.132Z,420.00
2023-06-19T05:39:14.126Z,434.00
2023-06-19T05:40:14.788Z,455.00
2023-06-19T05:41:14.107Z,462.00
2023-06-19T05:42:14.072Z,492.00
2023-06-19T05:43:14.050Z,522.00
2023-06-19T05:44:14.032Z,518.00
2023-06-19T05:45:14.049Z,551.00
2023-06-19T05:46:14.073Z,641.00
2023-06-19T05:47:14.064Z,642.00
2023-06-19T05:48:14.096Z,648.00
2023-06-19T05:49:13.968Z,661.00
2023-06-19T05:50:13.923Z,669.00
2023-06-19T05:51:14.001Z,681.00
2023-06-19T05:52:14.024Z,724.00
2023-06-19T05:53:15.566Z,740.00
2023-06-19T05:54:13.933Z,742.00
2023-06-19T05:55:13.955Z,752.00
2023-06-19T05:56:13.822Z,769.00
2023-06-19T05:57:14.006Z,798.00
2023-06-19T05:58:13.900Z,821.00
2023-06-19T05:59:13.776Z,862.00
2023-06-19T06:00:13.740Z,874.00
2023-06-19T06:01:13.752Z,886.00
2023-06-19T06:02:13.795Z,902.00
2023-06-19T06:03:13.825Z,920.00
2023-06-19T06:04:13.900Z,949.00
2023-06-19T06:05:13.845Z,949.00
2023-06-19T06:06:13.902Z,956.00
2023-06-19T06:07:13.914Z,965.00
2023-06-19T06:08:13.882Z,973.00
2023-06-19T06:09:13.845Z,994.00
2023-06-19T06:10:13.846Z,1031.00
2023-06-19T06:11:13.807Z,1037.00
2023-06-19T06:12:13.807Z,1036.00
2023-06-19T06:13:13.800Z,1042.00
2023-06-19T06:14:13.796Z,1052.00
2023-06-19T06:15:13.726Z,1059.00
2023-06-19T06:16:13.737Z,1087.00
2023-06-19T06:17:13.689Z,1096.00
2023-06-19T06:18:13.722Z,1104.00
2023-06-19T06:19:13.629Z,1113.00
2023-06-19T06:20:13.814Z,1114.00
2023-06-19T06:21:13.567Z,1121.00
2023-06-19T06:22:13.601Z,1119.00
2023-06-19T06:23:13.595Z,1123.00
2023-06-19T06:24:13.643Z,1131.00
2023-06-19T06:25:14.293Z,1146.00
2023-06-19T06:26:13.673Z,1173.00
2023-06-19T06:27:13.728Z,1192.00
2023-06-19T06:28:13.736Z,1201.00
2023-06-19T06:29:13.746Z,1204.00
2023-06-19T06:30:13.844Z,1223.00
2023-06-19T06:31:14.106Z,1262.00
2023-06-19T06:32:13.780Z,1275.00
2023-06-19T06:33:13.788Z,1289.00
2023-06-19T06:34:13.823Z,1338.00
2023-06-19T06:35:13.809Z,1345.00
2023-06-19T06:36:22.256Z,1351.00
2023-06-19T06:37:14.769Z,1355.00
2023-06-19T06:38:13.800Z,1363.00
2023-06-19T06:39:13.786Z,1368.00
2023-06-19T06:40:13.775Z,1378.00
2023-06-19T06:41:13.688Z,1386.00
2023-06-19T06:42:13.663Z,1390.00
2023-06-19T06:43:13.630Z,1398.00
2023-06-19T06:44:13.600Z,1388.00
2023-06-19T06:45:13.595Z,1353.00
2023-06-19T06:46:13.568Z,1334.00
2023-06-19T06:47:13.530Z,1322.00
2023-06-19T06:48:13.577Z,1207.00
2023-06-19T06:49:13.465Z,1214.00
2023-06-19T06:50:13.439Z,1204.00
2023-06-19T06:51:13.394Z,1196.00
2023-06-19T06:52:13.358Z,1139.00
2023-06-19T06:53:13.326Z,1112.00
2023-06-19T06:54:13.442Z,1096.00
2023-06-19T06:55:13.296Z,1097.00
2023-06-19T06:56:13.261Z,1050.00
2023-06-19T06:57:13.271Z,1038.00
2023-06-19T06:58:13.237Z,1039.00
2023-06-19T06:59:13.186Z,1023.00
2023-06-19T07:00:13.158Z,1018.00
2023-06-19T07:01:13.206Z,1002.00
2023-06-19T07:02:13.165Z,966.00
2023-06-19T07:03:13.451Z,960.00
2023-06-19T07:04:13.019Z,971.00
2023-06-19T07:05:12.975Z,983.00
2023-06-19T07:06:12.929Z,964.00
2023-06-19T07:07:12.960Z,978.00
2023-06-19T07:08:12.912Z,958.00
2023-06-19T07:09:12.911Z,949.00
2023-06-19T07:10:12.852Z,981.00
2023-06-19T07:11:12.821Z,915.00
2023-06-19T07:12:12.772Z,921.00
2023-06-19T07:13:12.851Z,893.00
2023-06-19T07:14:12.720Z,919.00
2023-06-19T07:15:12.689Z,921.00
2023-06-19T07:16:12.741Z,914.00
2023-06-19T07:17:12.765Z,922.00
2023-06-19T07:18:12.731Z,867.00
2023-06-19T07:19:12.639Z,951.00
2023-06-19T07:20:12.557Z,890.00
2023-06-19T07:21:12.527Z,917.00
2023-06-19T07:22:12.507Z,933.00
2023-06-19T07:23:12.513Z,942.00
2023-06-19T07:24:12.538Z,947.00
2023-06-19T07:25:12.518Z,943.00
2023-06-19T07:26:12.382Z,987.00
2023-06-19T07:27:12.357Z,989.00
2023-06-19T07:28:12.331Z,887.00
2023-06-19T07:29:13.006Z,907.00
2023-06-19T07:30:14.809Z,823.00
2023-06-19T07:31:12.490Z,941.00
2023-06-19T07:32:12.556Z,886.00
2023-06-19T07:33:12.597Z,873.00
2023-06-19T07:34:12.516Z,878.00
2023-06-19T07:35:12.522Z,940.00
2023-06-19T07:36:12.510Z,885.00
2023-06-19T07:37:12.504Z,865.00
2023-06-19T07:38:12.552Z,905.00
2023-06-19T07:39:12.559Z,937.00
2023-06-19T07:40:12.606Z,948.00
2023-06-19T07:41:12.550Z,954.00
2023-06-19T07:42:12.543Z,791.00
2023-06-19T07:43:12.519Z,838.00
2023-06-19T07:44:12.464Z,875.00
2023-06-19T07:45:12.483Z,884.00
2023-06-19T07:46:12.779Z,625.00
2023-06-19T07:47:12.392Z,742.00
2023-06-19T07:48:12.390Z,574.00
2023-06-19T07:49:12.336Z,483.00
2023-06-19T07:50:12.314Z,668.00
2023-06-19T07:51:12.312Z,595.00
2023-06-19T07:52:12.265Z,686.00
2023-06-19T07:53:12.197Z,524.00
2023-06-19T07:54:12.195Z,446.00
2023-06-19T07:55:12.126Z,562.00
2023-06-19T07:56:12.120Z,563.00
2023-06-19T07:57:12.092Z,563.00
2023-06-19T07:58:12.207Z,556.00
2023-06-19T07:59:12.079Z,513.00
2023-06-19T08:00:12.069Z,385.00
2023-06-19T08:01:12.176Z,466.00
2023-06-19T08:02:12.020Z,501.00
2023-06-19T08:03:12.024Z,356.00
2023-06-19T08:04:11.900Z,461.00
2023-06-19T08:05:12.014Z,435.00
2023-06-19T08:06:11.871Z,462.00
2023-06-19T08:07:11.930Z,407.00
2023-06-19T08:08:11.842Z,435.00
2023-06-19T08:09:11.839Z,416.00
2023-06-19T08:10:27.300Z,387.00
2023-06-19T08:11:12.780Z,394.00
2023-06-19T08:12:11.744Z,368.00
2023-06-19T08:13:11.722Z,422.00
2023-06-19T08:14:11.709Z,417.00
2023-06-19T08:15:11.680Z,432.00
2023-06-19T08:16:11.639Z,454.00
2023-06-19T08:17:11.718Z,450.00
2023-06-19T08:18:11.679Z,395.00
2023-06-19T08:19:11.563Z,436.00
2023-06-19T08:20:11.553Z,420.00
2023-06-19T08:21:11.523Z,390.00
2023-06-19T08:22:11.516Z,385.00
2023-06-19T08:23:11.525Z,410.00
2023-06-19T08:24:11.493Z,461.00
2023-06-19T08:25:11.487Z,455.00
2023-06-19T08:26:11.446Z,443.00
2023-06-19T08:27:11.395Z,437.00
2023-06-19T08:28:11.355Z,440.00
2023-06-19T08:29:11.356Z,447.00
2023-06-19T08:30:11.395Z,453.00
2023-06-19T08:31:11.358Z,459.00
2023-06-19T08:32:11.325Z,457.00
2023-06-19T08:33:11.406Z,462.00
2023-06-19T08:34:11.288Z,452.00
2023-06-19T08:35:11.261Z,448.00
2023-06-19T08:36:11.248Z,445.00
2023-06-19T08:37:11.246Z,438.00
2023-06-19T08:38:11.208Z,428.00
2023-06-19T08:39:11.234Z,416.00
2023-06-19T08:40:11.240Z,394.00
2023-06-19T08:41:11.253Z,387.00
2023-06-19T08:42:11.290Z,390.00
2023-06-19T08:43:11.306Z,392.00
2023-06-19T08:44:11.360Z,392.00
2023-06-19T08:45:11.355Z,394.00
2023-06-19T08:46:11.494Z,395.00
2023-06-19T08:47:11.397Z,397.00
2023-06-19T08:48:11.438Z,392.00
2023-06-19T08:49:11.428Z,391.00
2023-06-19T08:50:11.432Z,387.00
2023-06-19T08:51:11.430Z,385.00
2023-06-19T08:52:11.438Z,383.00
2023-06-19T08:53:11.396Z,373.00
2023-06-19T08:54:11.402Z,367.00
2023-06-19T08:55:11.396Z,362.00
2023-06-19T08:56:11.391Z,362.00
2023-06-19T08:57:11.396Z,365.00
2023-06-19T08:58:11.344Z,367.00
2023-06-19T08:59:11.330Z,367.00
2023-06-19T09:00:11.323Z,368.00
2023-06-19T09:01:11.275Z,370.00
2023-06-19T09:02:11.299Z,371.00
2023-06-19T09:03:14.016Z,370.00
2023-06-19T09:04:11.364Z,372.00
2023-06-19T09:05:11.182Z,373.00
2023-06-19T09:06:11.250Z,371.00
2023-06-19T09:07:11.277Z,369.00
2023-06-19T09:08:11.260Z,368.00
2023-06-19T09:09:11.151Z,367.00
2023-06-19T09:10:11.088Z,365.00
2023-06-19T09:11:11.212Z,364.00
2023-06-19T09:12:11.024Z,360.00
2023-06-19T09:13:11.022Z,359.00
2023-06-19T09:14:11.063Z,360.00
2023-06-19T09:15:10.956Z,364.00
2023-06-19T09:16:10.956Z,365.00
2023-06-19T09:17:12.239Z,367.00
2023-06-19T09:18:10.987Z,365.00
2023-06-19T09:19:10.867Z,365.00
2023-06-19T09:20:10.832Z,367.00
2023-06-19T09:21:10.830Z,370.00
2023-06-19T09:22:10.804Z,369.00
2023-06-19T09:23:10.762Z,366.00
2023-06-19T09:24:10.748Z,365.00
2023-06-19T09:25:10.742Z,367.00
2023-06-19T09:26:10.711Z,366.00
2023-06-19T09:27:10.745Z,364.00
2023-06-19T09:28:10.677Z,364.00
2023-06-19T09:29:14.789Z,364.00
2023-06-19T09:30:10.638Z,363.00
2023-06-19T09:31:10.602Z,365.00
2023-06-19T09:32:10.584Z,367.00
2023-06-19T09:33:10.908Z,370.00
2023-06-19T09:34:10.538Z,371.00
2023-06-19T09:35:10.538Z,374.00
2023-06-19T09:36:10.519Z,376.00
2023-06-19T09:37:10.478Z,377.00
2023-06-19T09:38:10.580Z,377.00
2023-06-19T09:39:10.448Z,382.00
2023-06-19T09:40:10.435Z,463.00
2023-06-19T09:41:10.415Z,437.00
2023-06-19T09:42:10.378Z,454.00
2023-06-19T09:43:10.385Z,487.00
2023-06-19T09:44:10.318Z,516.00
2023-06-19T09:45:10.296Z,548.00
2023-06-19T09:46:10.261Z,567.00
2023-06-19T09:47:10.265Z,591.00
2023-06-19T09:48:10.247Z,597.00
2023-06-19T09:49:10.206Z,611.00
2023-06-19T09:50:10.185Z,650.00
2023-06-19T09:51:10.160Z,650.00
2023-06-19T09:52:10.142Z,649.00
2023-06-19T09:53:10.149Z,655.00
2023-06-19T09:54:10.127Z,662.00
2023-06-19T09:55:10.069Z,670.00
2023-06-19T09:56:10.052Z,679.00
2023-06-19T09:57:10.002Z,686.00
2023-06-19T09:58:10.012Z,700.00
2023-06-19T09:59:09.975Z,716.00
2023-06-19T10:00:09.951Z,717.00
2023-06-19T10:01:09.900Z,721.00
2023-06-19T10:02:09.989Z,729.00
2023-06-19T10:03:10.104Z,739.00
2023-06-19T10:04:10.042Z,742.00
2023-06-19T10:05:11.614Z,748.00
2023-06-19T10:06:10.068Z,751.00
2023-06-19T10:07:10.009Z,758.00
2023-06-19T10:08:10.025Z,814.00
2023-06-19T10:09:09.979Z,804.00
2023-06-19T10:10:10.010Z,801.00
2023-06-19T10:11:09.930Z,836.00
2023-06-19T10:12:09.918Z,831.00
2023-06-19T10:13:09.854Z,826.00
2023-06-19T10:14:09.834Z,814.00
2023-06-19T10:15:09.805Z,814.00
2023-06-19T10:16:09.789Z,829.00
2023-06-19T10:17:09.894Z,856.00
2023-06-19T10:18:09.736Z,879.00
2023-06-19T10:19:09.692Z,870.00
2023-06-19T10:20:09.981Z,865.00
2023-06-19T10:21:09.625Z,867.00
2023-06-19T10:22:09.673Z,922.00
2023-06-19T10:23:09.634Z,946.00
2023-06-19T10:24:09.763Z,959.00
2023-06-19T10:25:09.679Z,951.00
2023-06-19T10:26:09.751Z,948.00
2023-06-19T10:27:09.691Z,955.00
2023-06-19T10:28:10.086Z,975.00
2023-06-19T10:29:09.754Z,978.00
2023-06-19T10:30:16.016Z,984.00
2023-06-19T10:31:10.769Z,992.00
2023-06-19T10:32:09.698Z,1002.00
2023-06-19T10:33:09.843Z,1017.00
2023-06-19T10:34:09.633Z,1031.00
2023-06-19T10:35:09.619Z,1075.00
2023-06-19T10:36:09.553Z,1083.00
2023-06-19T10:37:09.525Z,1062.00
2023-06-19T10:38:09.484Z,1047.00
2023-06-19T10:39:09.462Z,1039.00
2023-06-19T10:40:09.424Z,791.00
2023-06-19T10:41:09.402Z,573.00
2023-06-19T10:42:09.361Z,495.00
2023-06-19T10:43:09.322Z,616.00
2023-06-19T10:44:09.292Z,688.00
2023-06-19T10:45:09.266Z,691.00
2023-06-19T10:46:09.325Z,695.00
2023-06-19T10:47:09.222Z,696.00
2023-06-19T10:48:09.167Z,704.00
2023-06-19T10:49:09.132Z,713.00
2023-06-19T10:50:11.071Z,703.00
2023-06-19T10:51:09.067Z,694.00
2023-06-19T10:52:09.034Z,683.00
2023-06-19T10:53:09.036Z,685.00
2023-06-19T10:54:09.005Z,688.00
2023-06-19T10:55:08.951Z,684.00
2023-06-19T10:56:08.921Z,672.00
2023-06-19T10:57:08.887Z,679.00
2023-06-19T10:58:08.913Z,686.00
2023-06-19T10:59:08.820Z,665.00
2023-06-19T11:00:09.415Z,656.00
2023-06-19T11:01:08.815Z,665.00
2023-06-19T11:02:08.781Z,673.00
2023-06-19T11:03:08.809Z,673.00
2023-06-19T11:04:08.695Z,667.00
2023-06-19T11:05:08.684Z,599.00
2023-06-19T11:06:08.612Z,572.00
2023-06-19T11:07:08.637Z,617.00
2023-06-19T11:08:08.567Z,641.00
2023-06-19T11:09:08.515Z,633.00
2023-06-19T11:10:08.530Z,706.00
2023-06-19T11:11:08.448Z,713.00
2023-06-19T11:12:09.527Z,537.00
2023-06-19T11:13:08.415Z,598.00
2023-06-19T11:14:08.337Z,717.00
2023-06-19T11:15:08.345Z,738.00
2023-06-19T11:16:08.287Z,730.00
2023-06-19T11:17:08.258Z,595.00
2023-06-19T11:18:08.240Z,630.00
2023-06-19T11:19:08.207Z,663.00
2023-06-19T11:20:08.145Z,682.00
2023-06-19T11:21:08.104Z,714.00
2023-06-19T11:22:08.081Z,653.00
2023-06-19T11:23:08.049Z,614.00
2023-06-19T11:24:08.056Z,617.00
2023-06-19T11:25:07.961Z,644.00
2023-06-19T11:26:07.929Z,648.00
2023-06-19T11:27:07.981Z,750.00
2023-06-19T11:28:07.864Z,775.00
2023-06-19T11:29:08.978Z,783.00
2023-06-19T11:30:07.815Z,781.00
2023-06-19T11:31:07.833Z,780.00
2023-06-19T11:32:07.743Z,766.00
2023-06-19T11:33:07.710Z,745.00
2023-06-19T11:34:07.733Z,736.00
2023-06-19T11:35:07.635Z,733.00
2023-06-19T11:36:07.608Z,726.00
2023-06-19T11:37:07.575Z,719.00
2023-06-19T11:38:07.568Z,708.00
2023-06-19T11:39:07.487Z,692.00
2023-06-19T11:40:07.507Z,678.00
2023-06-19T11:41:07.525Z,666.00
2023-06-19T11:42:07.417Z,651.00
2023-06-19T11:43:07.404Z,647.00
2023-06-19T11:44:07.352Z,641.00
2023-06-19T11:45:07.308Z,635.00
2023-06-19T11:46:07.352Z,629.00
2023-06-19T11:47:07.272Z,625.00
2023-06-19T11:48:07.372Z,626.00
2023-06-19T11:49:07.764Z,623.00
2023-06-19T11:50:07.357Z,620.00
2023-06-19T11:51:07.316Z,618.00
2023-06-19T11:52:07.318Z,616.00
2023-06-19T11:53:07.375Z,614.00
2023-06-19T11:54:07.376Z,612.00
2023-06-19T11:55:07.361Z,608.00
2023-06-19T11:56:07.368Z,607.00
2023-06-19T11:57:07.330Z,601.00
2023-06-19T11:58:07.302Z,596.00
2023-06-19T11:59:07.282Z,594.00
2023-06-19T12:00:07.215Z,590.00
2023-06-19T12:01:07.215Z,589.00
2023-06-19T12:02:07.235Z,583.00
2023-06-19T12:03:07.241Z,579.00
2023-06-19T12:04:07.218Z,573.00
2023-06-19T12:05:07.083Z,569.00
2023-06-19T12:06:07.084Z,569.00
2023-06-19T12:07:07.111Z,567.00
2023-06-19T12:08:07.138Z,562.00
2023-06-19T12:09:07.304Z,561.00
2023-06-19T12:10:07.195Z,559.00
2023-06-19T12:11:07.201Z,558.00
2023-06-19T12:12:07.220Z,557.00
2023-06-19T12:13:07.286Z,553.00
2023-06-19T12:14:07.273Z,549.00
2023-06-19T12:15:07.316Z,546.00
2023-06-19T12:16:07.307Z,544.00
2023-06-19T12:17:07.358Z,539.00
2023-06-19T12:18:07.413Z,536.00
2023-06-19T12:19:07.414Z,535.00
2023-06-19T12:20:07.387Z,533.00
2023-06-19T12:21:12.886Z,530.00
2023-06-19T12:22:08.335Z,527.00
2023-06-19T12:23:07.329Z,523.00
2023-06-19T12:24:07.348Z,520.00
2023-06-19T12:25:07.243Z,519.00
2023-06-19T12:26:07.212Z,517.00